sensor_id;sensor_type;location;lat;lon;timestamp;P1;P2;P0
72854;PMS7003;60991;51.278;22.550;2022-11-15T00:00:01;42.00;35.00;18.00
72854;PMS7003;60991;51.278;22.550;2022-11-15T00:01:31;36.75;27.75;17.25
72854;PMS7003;60991;51.278;22.550;2022-11-15T00:03:01;39.67;33.67;17.67
72854;PMS7003;60991;51.278;22.550;2022-11-15T00:04:31;30.67;30.67;18.67
72854;PMS7003;60991;51.278;22.550;2022-11-15T00:06:02;42.00;36.75;18.00
72854;PMS7003;60991;51.278;22.550;2022-11-15T00:07:34;33.75;28.75;18.00
72854;PMS7003;60991;51.278;22.550;2022-11-15T00:09:04;34.25;33.50;17.00
72854;PMS7003;60991;51.278;22.550;2022-11-15T00:10:35;30.00;24.50;15.75
72854;PMS7003;60991;51.278;22.550;2022-11-15T00:12:05;29.00;25.75;14.50
72854;PMS7003;60991;51.278;22.550;2022-11-15T00:13:36;42.75;30.50;17.75
72854;PMS7003;60991;51.278;22.550;2022-11-15T00:15:06;26.00;25.33;13.33
72854;PMS7003;60991;51.278;22.550;2022-11-15T00:16:37;27.00;24.00;13.75
72854;PMS7003;60991;51.278;22.550;2022-11-15T00:18:13;37.00;28.00;17.75
72854;PMS7003;60991;51.278;22.550;2022-11-15T00:19:45;36.50;28.25;17.00
72854;PMS7003;60991;51.278;22.550;2022-11-15T00:21:15;39.00;33.67;18.00
72854;PMS7003;60991;51.278;22.550;2022-11-15T00:22:46;33.75;26.75;16.00
72854;PMS7003;60991;51.278;22.550;2022-11-15T00:24:16;33.67;28.67;15.00
72854;PMS7003;60991;51.278;22.550;2022-11-15T00:25:47;35.67;28.67;18.00
72854;PMS7003;60991;51.278;22.550;2022-11-15T00:27:17;34.00;24.50;14.25
72854;PMS7003;60991;51.278;22.550;2022-11-15T00:28:47;34.67;30.67;17.67
72854;PMS7003;60991;51.278;22.550;2022-11-15T00:30:17;36.33;27.67;17.00
72854;PMS7003;60991;51.278;22.550;2022-11-15T00:31:48;36.33;29.00;14.33
72854;PMS7003;60991;51.278;22.550;2022-11-15T00:33:18;37.33;27.67;14.67
72854;PMS7003;60991;51.278;22.550;2022-11-15T00:34:48;36.75;29.75;18.00
72854;PMS7003;60991;51.278;22.550;2022-11-15T00:36:18;30.00;28.25;17.50
72854;PMS7003;60991;51.278;22.550;2022-11-15T00:37:48;6.00;4.33;0.00
72854;PMS7003;60991;51.278;22.550;2022-11-15T00:39:19;43.67;31.67;17.00
72854;PMS7003;60991;51.278;22.550;2022-11-15T00:40:49;45.67;35.33;17.33
72854;PMS7003;60991;51.278;22.550;2022-11-15T00:42:19;37.33;33.67;15.67
72854;PMS7003;60991;51.278;22.550;2022-11-15T00:43:49;34.33;27.00;13.33
72854;PMS7003;60991;51.278;22.550;2022-11-15T00:45:19;50.00;29.67;16.67
72854;PMS7003;60991;51.278;22.550;2022-11-15T00:46:50;37.00;29.67;16.67
72854;PMS7003;60991;51.278;22.550;2022-11-15T00:48:20;40.33;33.33;16.33
72854;PMS7003;60991;51.278;22.550;2022-11-15T00:49:50;37.00;31.50;17.75
72854;PMS7003;60991;51.278;22.550;2022-11-15T00:51:20;34.33;30.33;17.00
72854;PMS7003;60991;51.278;22.550;2022-11-15T00:54:58;46.50;34.00;16.00
72854;PMS7003;60991;51.278;22.550;2022-11-15T00:56:28;37.50;31.00;17.25
72854;PMS7003;60991;51.278;22.550;2022-11-15T00:57:59;26.50;23.25;13.00
72854;PMS7003;60991;51.278;22.550;2022-11-15T00:59:29;39.00;28.00;15.50
72854;PMS7003;60991;51.278;22.550;2022-11-15T01:01:06;40.25;30.00;15.50
72854;PMS7003;60991;51.278;22.550;2022-11-15T01:02:41;35.25;32.25;14.25
72854;PMS7003;60991;51.278;22.550;2022-11-15T01:04:11;37.50;31.00;15.00
72854;PMS7003;60991;51.278;22.550;2022-11-15T01:05:41;33.50;32.00;17.50
72854;PMS7003;60991;51.278;22.550;2022-11-15T01:07:12;37.50;33.75;16.00
72854;PMS7003;60991;51.278;22.550;2022-11-15T01:08:45;35.25;29.25;18.00
72854;PMS7003;60991;51.278;22.550;2022-11-15T01:10:15;33.25;33.00;15.75
72854;PMS7003;60991;51.278;22.550;2022-11-15T01:11:45;35.00;26.25;14.00
72854;PMS7003;60991;51.278;22.550;2022-11-15T01:13:15;37.25;33.75;18.50
72854;PMS7003;60991;51.278;22.550;2022-11-15T01:14:46;41.25;33.00;17.25
72854;PMS7003;60991;51.278;22.550;2022-11-15T01:16:17;37.50;30.50;15.25
72854;PMS7003;60991;51.278;22.550;2022-11-15T01:17:48;40.00;30.50;16.25
72854;PMS7003;60991;51.278;22.550;2022-11-15T01:19:18;43.00;29.75;15.50
72854;PMS7003;60991;51.278;22.550;2022-11-15T01:20:48;35.25;30.00;13.25
72854;PMS7003;60991;51.278;22.550;2022-11-15T01:22:19;39.25;32.75;17.75
72854;PMS7003;60991;51.278;22.550;2022-11-15T01:23:52;36.75;29.75;16.50
72854;PMS7003;60991;51.278;22.550;2022-11-15T01:25:23;34.00;29.25;14.00
72854;PMS7003;60991;51.278;22.550;2022-11-15T01:26:54;30.00;26.75;13.50
72854;PMS7003;60991;51.278;22.550;2022-11-15T01:28:24;29.75;26.50;15.00
72854;PMS7003;60991;51.278;22.550;2022-11-15T01:29:54;32.00;24.00;12.25
72854;PMS7003;60991;51.278;22.550;2022-11-15T01:31:24;34.75;28.50;14.50
72854;PMS7003;60991;51.278;22.550;2022-11-15T01:32:55;30.75;24.00;14.25
72854;PMS7003;60991;51.278;22.550;2022-11-15T01:34:25;37.75;30.25;13.50
72854;PMS7003;60991;51.278;22.550;2022-11-15T01:35:55;55.00;38.50;18.50
72854;PMS7003;60991;51.278;22.550;2022-11-15T01:37:26;39.50;32.50;15.00
72854;PMS7003;60991;51.278;22.550;2022-11-15T01:38:56;28.25;26.50;15.50
72854;PMS7003;60991;51.278;22.550;2022-11-15T01:40:27;37.75;27.00;14.75
72854;PMS7003;60991;51.278;22.550;2022-11-15T01:41:58;34.25;29.00;15.00
72854;PMS7003;60991;51.278;22.550;2022-11-15T01:43:29;35.00;27.50;15.25
72854;PMS7003;60991;51.278;22.550;2022-11-15T01:45:05;38.75;31.75;13.25
72854;PMS7003;60991;51.278;22.550;2022-11-15T01:46:36;32.50;27.25;16.50
72854;PMS7003;60991;51.278;22.550;2022-11-15T01:48:08;39.75;33.50;17.25
72854;PMS7003;60991;51.278;22.550;2022-11-15T01:49:44;33.50;27.50;15.50
72854;PMS7003;60991;51.278;22.550;2022-11-15T01:51:30;40.75;32.25;16.25
72854;PMS7003;60991;51.278;22.550;2022-11-15T01:53:03;44.50;34.00;17.25
72854;PMS7003;60991;51.278;22.550;2022-11-15T01:54:33;33.75;27.75;14.00
72854;PMS7003;60991;51.278;22.550;2022-11-15T01:56:04;45.75;31.00;16.00
72854;PMS7003;60991;51.278;22.550;2022-11-15T01:57:38;36.00;27.25;16.00
72854;PMS7003;60991;51.278;22.550;2022-11-15T01:59:11;36.25;27.75;13.00
72854;PMS7003;60991;51.278;22.550;2022-11-15T02:00:42;30.50;23.00;12.75
72854;PMS7003;60991;51.278;22.550;2022-11-15T02:02:12;28.50;25.50;13.00
72854;PMS7003;60991;51.278;22.550;2022-11-15T02:05:21;26.50;20.50;11.75
72854;PMS7003;60991;51.278;22.550;2022-11-15T02:06:52;31.00;24.00;13.00
72854;PMS7003;60991;51.278;22.550;2022-11-15T02:08:23;46.00;34.25;17.00
72854;PMS7003;60991;51.278;22.550;2022-11-15T02:09:53;31.25;27.25;12.50
72854;PMS7003;60991;51.278;22.550;2022-11-15T02:11:24;36.00;29.00;16.00
72854;PMS7003;60991;51.278;22.550;2022-11-15T02:12:54;33.00;30.25;17.50
72854;PMS7003;60991;51.278;22.550;2022-11-15T02:14:26;35.50;27.75;17.00
72854;PMS7003;60991;51.278;22.550;2022-11-15T02:26:49;34.25;28.75;16.00
72854;PMS7003;60991;51.278;22.550;2022-11-15T02:28:45;35.25;25.75;13.00
72854;PMS7003;60991;51.278;22.550;2022-11-15T02:35:46;33.25;30.00;15.00
72854;PMS7003;60991;51.278;22.550;2022-11-15T02:41:17;32.50;25.50;13.50
72854;PMS7003;60991;51.278;22.550;2022-11-15T02:42:55;26.50;24.50;15.50
72854;PMS7003;60991;51.278;22.550;2022-11-15T02:44:39;25.00;21.50;12.00
72854;PMS7003;60991;51.278;22.550;2022-11-15T02:46:21;24.25;21.75;13.00
72854;PMS7003;60991;51.278;22.550;2022-11-15T02:48:02;26.00;20.75;11.50
72854;PMS7003;60991;51.278;22.550;2022-11-15T02:49:35;35.25;27.00;12.25
72854;PMS7003;60991;51.278;22.550;2022-11-15T02:51:07;32.50;23.00;14.75
72854;PMS7003;60991;51.278;22.550;2022-11-15T02:52:39;37.75;32.00;14.25
72854;PMS7003;60991;51.278;22.550;2022-11-15T02:54:18;30.00;26.50;13.50
72854;PMS7003;60991;51.278;22.550;2022-11-15T02:55:51;30.25;23.25;13.75
72854;PMS7003;60991;51.278;22.550;2022-11-15T02:57:30;34.00;23.00;14.00
72854;PMS7003;60991;51.278;22.550;2022-11-15T03:04:42;31.50;25.00;11.75
72854;PMS7003;60991;51.278;22.550;2022-11-15T03:10:04;31.50;25.00;12.00
72854;PMS7003;60991;51.278;22.550;2022-11-15T03:11:40;38.00;25.00;12.00
72854;PMS7003;60991;51.278;22.550;2022-11-15T03:13:19;25.50;25.00;12.25
72854;PMS7003;60991;51.278;22.550;2022-11-15T03:15:06;31.75;28.50;13.00
72854;PMS7003;60991;51.278;22.550;2022-11-15T03:18:41;34.75;27.75;12.75
72854;PMS7003;60991;51.278;22.550;2022-11-15T03:20:16;33.00;23.75;12.25
72854;PMS7003;60991;51.278;22.550;2022-11-15T03:21:47;30.00;24.75;13.00
72854;PMS7003;60991;51.278;22.550;2022-11-15T03:23:21;29.00;23.75;11.00
72854;PMS7003;60991;51.278;22.550;2022-11-15T03:24:58;37.00;25.00;13.50
72854;PMS7003;60991;51.278;22.550;2022-11-15T03:26:30;30.25;23.25;13.00
72854;PMS7003;60991;51.278;22.550;2022-11-15T03:28:03;23.25;21.25;12.00
72854;PMS7003;60991;51.278;22.550;2022-11-15T03:29:37;25.75;23.50;11.50
72854;PMS7003;60991;51.278;22.550;2022-11-15T03:31:11;25.00;23.25;12.00
72854;PMS7003;60991;51.278;22.550;2022-11-15T03:32:52;26.75;26.00;12.75
72854;PMS7003;60991;51.278;22.550;2022-11-15T03:34:30;22.75;21.00;11.75
72854;PMS7003;60991;51.278;22.550;2022-11-15T03:36:06;23.25;19.75;11.00
72854;PMS7003;60991;51.278;22.550;2022-11-15T03:39:19;23.75;20.25;11.25
72854;PMS7003;60991;51.278;22.550;2022-11-15T03:46:38;26.00;22.00;11.50
72854;PMS7003;60991;51.278;22.550;2022-11-15T03:48:21;29.00;22.50;12.75
72854;PMS7003;60991;51.278;22.550;2022-11-15T03:50:03;19.25;19.25;10.00
72854;PMS7003;60991;51.278;22.550;2022-11-15T03:51:38;33.00;23.75;12.00
72854;PMS7003;60991;51.278;22.550;2022-11-15T03:53:08;29.00;23.25;11.75
72854;PMS7003;60991;51.278;22.550;2022-11-15T03:54:55;22.75;17.50;11.00
72854;PMS7003;60991;51.278;22.550;2022-11-15T03:56:26;23.25;18.25;10.00
72854;PMS7003;60991;51.278;22.550;2022-11-15T03:57:57;21.50;17.75;11.75
72854;PMS7003;60991;51.278;22.550;2022-11-15T03:59:29;21.75;18.25;11.25
72854;PMS7003;60991;51.278;22.550;2022-11-15T04:00:59;22.75;18.00;8.50
72854;PMS7003;60991;51.278;22.550;2022-11-15T04:02:30;21.25;17.00;11.00
72854;PMS7003;60991;51.278;22.550;2022-11-15T04:04:00;28.75;19.75;12.00
72854;PMS7003;60991;51.278;22.550;2022-11-15T04:05:30;25.25;22.00;12.00
72854;PMS7003;60991;51.278;22.550;2022-11-15T04:07:00;28.75;19.25;12.00
72854;PMS7003;60991;51.278;22.550;2022-11-15T04:08:31;21.25;18.75;10.00
72854;PMS7003;60991;51.278;22.550;2022-11-15T04:10:01;23.00;22.00;11.00
72854;PMS7003;60991;51.278;22.550;2022-11-15T04:11:31;21.00;18.50;11.00
72854;PMS7003;60991;51.278;22.550;2022-11-15T04:13:02;25.25;21.25;11.00
72854;PMS7003;60991;51.278;22.550;2022-11-15T04:14:32;31.50;22.25;11.75
72854;PMS7003;60991;51.278;22.550;2022-11-15T04:16:03;23.25;19.50;8.75
72854;PMS7003;60991;51.278;22.550;2022-11-15T04:17:40;26.00;23.50;11.75
72854;PMS7003;60991;51.278;22.550;2022-11-15T04:19:14;24.25;15.00;9.25
72854;PMS7003;60991;51.278;22.550;2022-11-15T04:20:45;20.00;16.00;10.00
72854;PMS7003;60991;51.278;22.550;2022-11-15T04:22:15;23.00;18.25;8.75
72854;PMS7003;60991;51.278;22.550;2022-11-15T04:23:45;23.25;17.50;8.00
72854;PMS7003;60991;51.278;22.550;2022-11-15T04:25:15;23.75;17.50;11.00
72854;PMS7003;60991;51.278;22.550;2022-11-15T04:26:46;26.75;22.00;11.75
72854;PMS7003;60991;51.278;22.550;2022-11-15T04:28:16;28.75;18.00;10.00
72854;PMS7003;60991;51.278;22.550;2022-11-15T04:29:46;14.50;14.50;9.25
72854;PMS7003;60991;51.278;22.550;2022-11-15T04:31:17;22.50;18.50;9.25
72854;PMS7003;60991;51.278;22.550;2022-11-15T04:32:47;19.00;16.25;10.50
72854;PMS7003;60991;51.278;22.550;2022-11-15T04:34:17;21.25;18.75;10.50
72854;PMS7003;60991;51.278;22.550;2022-11-15T04:35:47;28.25;18.25;11.00
72854;PMS7003;60991;51.278;22.550;2022-11-15T04:37:18;31.75;23.25;9.50
72854;PMS7003;60991;51.278;22.550;2022-11-15T04:38:48;25.25;18.75;11.00
72854;PMS7003;60991;51.278;22.550;2022-11-15T04:40:18;22.33;19.67;9.33
72854;PMS7003;60991;51.278;22.550;2022-11-15T04:41:48;19.75;15.25;8.50
72854;PMS7003;60991;51.278;22.550;2022-11-15T04:43:18;19.33;17.33;10.67
72854;PMS7003;60991;51.278;22.550;2022-11-15T04:44:49;24.67;21.00;12.33
72854;PMS7003;60991;51.278;22.550;2022-11-15T04:46:19;18.33;17.33;11.00
72854;PMS7003;60991;51.278;22.550;2022-11-15T04:47:49;21.33;19.33;11.00
72854;PMS7003;60991;51.278;22.550;2022-11-15T04:49:19;16.00;15.75;8.25
72854;PMS7003;60991;51.278;22.550;2022-11-15T04:50:50;25.33;20.00;10.00
72854;PMS7003;60991;51.278;22.550;2022-11-15T04:52:20;21.33;17.33;10.00
72854;PMS7003;60991;51.278;22.550;2022-11-15T04:53:50;24.00;18.25;11.25
72854;PMS7003;60991;51.278;22.550;2022-11-15T04:55:20;21.67;20.00;12.00
72854;PMS7003;60991;51.278;22.550;2022-11-15T04:56:51;17.75;13.25;9.25
72854;PMS7003;60991;51.278;22.550;2022-11-15T04:58:21;19.00;16.00;10.33
72854;PMS7003;60991;51.278;22.550;2022-11-15T04:59:51;23.00;14.75;10.25
72854;PMS7003;60991;51.278;22.550;2022-11-15T05:01:21;22.33;12.67;8.00
72854;PMS7003;60991;51.278;22.550;2022-11-15T05:02:51;20.33;17.00;10.67
72854;PMS7003;60991;51.278;22.550;2022-11-15T05:04:22;19.50;16.00;9.25
72854;PMS7003;60991;51.278;22.550;2022-11-15T05:05:52;16.67;16.00;10.67
72854;PMS7003;60991;51.278;22.550;2022-11-15T05:07:22;26.33;20.67;11.00
72854;PMS7003;60991;51.278;22.550;2022-11-15T05:08:52;13.33;10.33;5.00
72854;PMS7003;60991;51.278;22.550;2022-11-15T05:10:23;28.75;20.50;10.25
72854;PMS7003;60991;51.278;22.550;2022-11-15T05:11:53;25.67;22.00;12.00
72854;PMS7003;60991;51.278;22.550;2022-11-15T05:13:23;23.67;20.33;11.00
72854;PMS7003;60991;51.278;22.550;2022-11-15T05:14:54;18.75;16.00;10.25
72854;PMS7003;60991;51.278;22.550;2022-11-15T05:16:24;28.33;20.67;8.00
72854;PMS7003;60991;51.278;22.550;2022-11-15T05:17:58;24.00;18.67;11.00
72854;PMS7003;60991;51.278;22.550;2022-11-15T05:19:29;16.75;16.00;8.00
72854;PMS7003;60991;51.278;22.550;2022-11-15T05:21:03;20.50;17.25;11.00
72854;PMS7003;60991;51.278;22.550;2022-11-15T05:22:34;25.00;20.50;12.00
72854;PMS7003;60991;51.278;22.550;2022-11-15T05:24:23;24.50;20.25;10.00
72854;PMS7003;60991;51.278;22.550;2022-11-15T05:25:53;21.50;19.00;12.00
72854;PMS7003;60991;51.278;22.550;2022-11-15T05:27:23;21.67;18.00;8.00
72854;PMS7003;60991;51.278;22.550;2022-11-15T05:28:54;20.00;15.33;8.00
72854;PMS7003;60991;51.278;22.550;2022-11-15T05:30:26;18.25;17.00;10.50
72854;PMS7003;60991;51.278;22.550;2022-11-15T05:31:56;19.75;16.00;8.50
72854;PMS7003;60991;51.278;22.550;2022-11-15T05:33:26;16.25;14.00;8.50
72854;PMS7003;60991;51.278;22.550;2022-11-15T05:34:57;19.75;17.00;10.25
72854;PMS7003;60991;51.278;22.550;2022-11-15T05:36:34;17.75;15.25;9.75
72854;PMS7003;60991;51.278;22.550;2022-11-15T05:38:07;19.00;15.00;6.50
72854;PMS7003;60991;51.278;22.550;2022-11-15T05:39:37;18.75;17.25;10.25
72854;PMS7003;60991;51.278;22.550;2022-11-15T05:41:07;17.00;14.75;8.00
72854;PMS7003;60991;51.278;22.550;2022-11-15T05:42:38;16.25;14.50;11.00
72854;PMS7003;60991;51.278;22.550;2022-11-15T05:44:09;20.75;17.75;10.50
72854;PMS7003;60991;51.278;22.550;2022-11-15T05:45:41;20.75;16.00;10.00
72854;PMS7003;60991;51.278;22.550;2022-11-15T05:47:12;20.33;14.33;10.33
72854;PMS7003;60991;51.278;22.550;2022-11-15T05:48:54;20.25;16.25;9.00
72854;PMS7003;60991;51.278;22.550;2022-11-15T05:50:26;21.00;12.75;8.50
72854;PMS7003;60991;51.278;22.550;2022-11-15T05:51:57;17.25;17.00;11.00
72854;PMS7003;60991;51.278;22.550;2022-11-15T05:53:28;31.50;17.00;11.00
72854;PMS7003;60991;51.278;22.550;2022-11-15T05:55:06;21.75;15.25;9.25
72854;PMS7003;60991;51.278;22.550;2022-11-15T05:56:38;18.00;12.25;7.00
72854;PMS7003;60991;51.278;22.550;2022-11-15T05:58:09;18.25;13.50;8.00
72854;PMS7003;60991;51.278;22.550;2022-11-15T05:59:39;22.75;19.75;10.75
72854;PMS7003;60991;51.278;22.550;2022-11-15T06:01:10;12.50;11.25;7.00
72854;PMS7003;60991;51.278;22.550;2022-11-15T06:02:41;15.75;15.00;8.00
72854;PMS7003;60991;51.278;22.550;2022-11-15T06:04:11;15.00;15.00;10.00
72854;PMS7003;60991;51.278;22.550;2022-11-15T06:05:41;20.67;15.00;8.67
72854;PMS7003;60991;51.278;22.550;2022-11-15T06:07:11;20.33;14.67;9.33
72854;PMS7003;60991;51.278;22.550;2022-11-15T06:08:44;16.75;15.00;9.50
72854;PMS7003;60991;51.278;22.550;2022-11-15T06:10:14;16.25;11.75;8.00
72854;PMS7003;60991;51.278;22.550;2022-11-15T06:11:46;23.25;16.25;10.75
72854;PMS7003;60991;51.278;22.550;2022-11-15T06:13:16;19.00;14.00;8.00
72854;PMS7003;60991;51.278;22.550;2022-11-15T06:14:46;20.00;13.33;8.67
72854;PMS7003;60991;51.278;22.550;2022-11-15T06:16:16;19.67;14.67;10.00
72854;PMS7003;60991;51.278;22.550;2022-11-15T06:17:47;20.25;15.00;8.50
72854;PMS7003;60991;51.278;22.550;2022-11-15T06:19:18;20.25;12.00;7.00
72854;PMS7003;60991;51.278;22.550;2022-11-15T06:20:48;12.67;12.67;8.00
72854;PMS7003;60991;51.278;22.550;2022-11-15T06:22:19;15.50;15.50;10.25
72854;PMS7003;60991;51.278;22.550;2022-11-15T06:23:49;20.75;18.00;10.00
72854;PMS7003;60991;51.278;22.550;2022-11-15T06:25:20;18.75;17.00;10.50
72854;PMS7003;60991;51.278;22.550;2022-11-15T06:26:50;20.33;17.67;8.67
72854;PMS7003;60991;51.278;22.550;2022-11-15T06:28:20;15.50;15.25;9.00
72854;PMS7003;60991;51.278;22.550;2022-11-15T06:29:51;17.67;15.00;8.67
72854;PMS7003;60991;51.278;22.550;2022-11-15T06:31:21;19.33;12.33;8.00
72854;PMS7003;60991;51.278;22.550;2022-11-15T06:32:51;23.00;21.00;11.67
72854;PMS7003;60991;51.278;22.550;2022-11-15T06:34:28;15.50;13.25;7.00
72854;PMS7003;60991;51.278;22.550;2022-11-15T06:36:02;15.67;15.67;10.00
72854;PMS7003;60991;51.278;22.550;2022-11-15T06:37:36;19.25;16.25;11.00
72854;PMS7003;60991;51.278;22.550;2022-11-15T06:39:06;16.00;15.50;10.50
72854;PMS7003;60991;51.278;22.550;2022-11-15T06:40:37;24.00;15.75;8.00
72854;PMS7003;60991;51.278;22.550;2022-11-15T06:42:08;22.50;18.50;10.00
72854;PMS7003;60991;51.278;22.550;2022-11-15T06:43:39;23.50;19.75;12.25
72854;PMS7003;60991;51.278;22.550;2022-11-15T06:45:09;20.25;19.00;11.00
72854;PMS7003;60991;51.278;22.550;2022-11-15T06:46:39;18.00;17.33;7.33
72854;PMS7003;60991;51.278;22.550;2022-11-15T06:48:09;17.50;14.50;10.00
72854;PMS7003;60991;51.278;22.550;2022-11-15T06:49:40;19.00;15.67;10.00
72854;PMS7003;60991;51.278;22.550;2022-11-15T06:51:10;20.00;15.33;8.67
72854;PMS7003;60991;51.278;22.550;2022-11-15T06:52:40;17.25;15.25;8.25
72854;PMS7003;60991;51.278;22.550;2022-11-15T06:54:10;17.75;15.75;10.75
72854;PMS7003;60991;51.278;22.550;2022-11-15T06:55:41;23.25;19.00;10.25
72854;PMS7003;60991;51.278;22.550;2022-11-15T06:57:11;16.67;14.33;10.00
72854;PMS7003;60991;51.278;22.550;2022-11-15T06:58:41;29.00;20.00;10.33
72854;PMS7003;60991;51.278;22.550;2022-11-15T07:00:11;23.00;17.33;10.00
72854;PMS7003;60991;51.278;22.550;2022-11-15T07:01:42;22.75;21.00;10.75
72854;PMS7003;60991;51.278;22.550;2022-11-15T07:03:12;22.33;17.33;11.00
72854;PMS7003;60991;51.278;22.550;2022-11-15T07:04:42;22.67;17.00;9.33
72854;PMS7003;60991;51.278;22.550;2022-11-15T07:06:12;20.00;17.33;10.00
72854;PMS7003;60991;51.278;22.550;2022-11-15T07:07:43;23.75;21.00;11.75
72854;PMS7003;60991;51.278;22.550;2022-11-15T07:09:13;26.33;16.67;10.33
72854;PMS7003;60991;51.278;22.550;2022-11-15T07:10:44;26.00;16.25;8.00
72854;PMS7003;60991;51.278;22.550;2022-11-15T07:12:14;22.33;17.33;10.67
72854;PMS7003;60991;51.278;22.550;2022-11-15T07:13:44;19.50;16.50;8.00
72854;PMS7003;60991;51.278;22.550;2022-11-15T07:15:15;21.00;17.00;8.33
72854;PMS7003;60991;51.278;22.550;2022-11-15T07:16:46;19.25;14.50;8.00
72854;PMS7003;60991;51.278;22.550;2022-11-15T07:18:18;18.75;17.75;9.25
72854;PMS7003;60991;51.278;22.550;2022-11-15T07:19:48;30.75;17.00;7.50
72854;PMS7003;60991;51.278;22.550;2022-11-15T07:21:19;23.25;17.75;11.75
72854;PMS7003;60991;51.278;22.550;2022-11-15T07:22:49;18.00;15.33;9.33
72854;PMS7003;60991;51.278;22.550;2022-11-15T07:24:19;13.33;10.33;6.00
72854;PMS7003;60991;51.278;22.550;2022-11-15T07:25:49;22.00;17.33;8.67
72854;PMS7003;60991;51.278;22.550;2022-11-15T07:27:20;16.00;16.00;10.00
72854;PMS7003;60991;51.278;22.550;2022-11-15T07:28:50;18.33;15.00;10.00
72854;PMS7003;60991;51.278;22.550;2022-11-15T07:30:20;17.00;11.67;9.33
72854;PMS7003;60991;51.278;22.550;2022-11-15T07:31:50;20.50;16.50;8.00
72854;PMS7003;60991;51.278;22.550;2022-11-15T07:33:21;20.00;19.00;9.33
72854;PMS7003;60991;51.278;22.550;2022-11-15T07:34:51;16.50;16.50;10.50
72854;PMS7003;60991;51.278;22.550;2022-11-15T07:36:21;18.25;17.75;11.50
72854;PMS7003;60991;51.278;22.550;2022-11-15T07:39:29;19.25;17.25;8.00
72854;PMS7003;60991;51.278;22.550;2022-11-15T07:41:00;21.67;17.67;11.00
72854;PMS7003;60991;51.278;22.550;2022-11-15T07:42:32;15.50;12.25;8.00
72854;PMS7003;60991;51.278;22.550;2022-11-15T07:44:02;18.50;17.00;10.75
72854;PMS7003;60991;51.278;22.550;2022-11-15T07:45:32;16.25;12.50;6.00
72854;PMS7003;60991;51.278;22.550;2022-11-15T08:33:47;16.25;14.50;10.25
72854;PMS7003;60991;51.278;22.550;2022-11-15T08:35:18;15.50;13.25;9.50
72854;PMS7003;60991;51.278;22.550;2022-11-15T08:36:49;19.50;18.50;10.50
72854;PMS7003;60991;51.278;22.550;2022-11-15T08:38:20;21.75;19.25;11.75
72854;PMS7003;60991;51.278;22.550;2022-11-15T09:16:33;15.00;11.25;7.25
72854;PMS7003;60991;51.278;22.550;2022-11-15T12:54:54;32.25;28.50;18.50
72854;PMS7003;60991;51.278;22.550;2022-11-15T12:56:27;47.50;36.25;21.00
72854;PMS7003;60991;51.278;22.550;2022-11-15T12:57:59;44.67;36.33;20.67
72854;PMS7003;60991;51.278;22.550;2022-11-15T13:03:18;34.00;32.50;18.75
72854;PMS7003;60991;51.278;22.550;2022-11-15T13:04:51;36.25;33.00;18.25
72854;PMS7003;60991;51.278;22.550;2022-11-15T13:08:03;42.00;35.50;22.75
72854;PMS7003;60991;51.278;22.550;2022-11-15T14:20:00;49.00;40.75;23.25
72854;PMS7003;60991;51.278;22.550;2022-11-15T14:21:31;53.00;41.75;23.50
72854;PMS7003;60991;51.278;22.550;2022-11-15T14:25:16;42.00;37.75;21.75
72854;PMS7003;60991;51.278;22.550;2022-11-15T14:26:48;44.00;38.75;24.50
72854;PMS7003;60991;51.278;22.550;2022-11-15T14:29:52;59.00;43.00;24.25
72854;PMS7003;60991;51.278;22.550;2022-11-15T14:31:23;41.25;34.25;14.50
72854;PMS7003;60991;51.278;22.550;2022-11-15T15:07:56;51.75;40.75;24.25
72854;PMS7003;60991;51.278;22.550;2022-11-15T15:12:47;58.50;43.25;25.00
72854;PMS7003;60991;51.278;22.550;2022-11-15T15:14:18;58.50;44.50;25.00
72854;PMS7003;60991;51.278;22.550;2022-11-15T15:15:49;57.67;46.00;27.67
72854;PMS7003;60991;51.278;22.550;2022-11-15T15:17:20;52.75;44.75;26.25
72854;PMS7003;60991;51.278;22.550;2022-11-15T15:30:28;57.75;46.25;28.00
72854;PMS7003;60991;51.278;22.550;2022-11-15T19:07:33;56.25;39.50;21.00
72854;PMS7003;60991;51.278;22.550;2022-11-15T19:09:03;43.00;39.00;18.67
72854;PMS7003;60991;51.278;22.550;2022-11-15T19:10:34;50.75;40.25;20.50
72854;PMS7003;60991;51.278;22.550;2022-11-15T19:12:05;57.00;40.50;21.25
72854;PMS7003;60991;51.278;22.550;2022-11-15T19:40:17;56.50;46.50;25.50
72854;PMS7003;60991;51.278;22.550;2022-11-15T19:41:48;59.67;46.00;26.00
72854;PMS7003;60991;51.278;22.550;2022-11-15T19:54:52;64.75;49.00;27.00
72854;PMS7003;60991;51.278;22.550;2022-11-15T19:56:23;59.33;46.00;24.33
72854;PMS7003;60991;51.278;22.550;2022-11-15T20:01:13;63.25;46.25;25.25
72854;PMS7003;60991;51.278;22.550;2022-11-15T20:02:46;64.00;46.50;26.25
72854;PMS7003;60991;51.278;22.550;2022-11-15T20:07:36;63.25;47.75;26.00
72854;PMS7003;60991;51.278;22.550;2022-11-15T20:09:07;60.33;45.33;24.67
72854;PMS7003;60991;51.278;22.550;2022-11-15T20:10:42;64.75;45.75;25.50
72854;PMS7003;60991;51.278;22.550;2022-11-15T20:12:12;60.25;46.75;25.00
72854;PMS7003;60991;51.278;22.550;2022-11-15T20:13:43;59.67;45.33;26.00
72854;PMS7003;60991;51.278;22.550;2022-11-15T20:15:13;64.25;48.25;25.00
72854;PMS7003;60991;51.278;22.550;2022-11-15T20:16:44;53.00;42.00;26.00
72854;PMS7003;60991;51.278;22.550;2022-11-15T20:18:14;62.33;46.67;25.67
72854;PMS7003;60991;51.278;22.550;2022-11-15T20:19:45;64.00;45.25;26.00
72854;PMS7003;60991;51.278;22.550;2022-11-15T20:21:15;50.33;42.00;25.33
72854;PMS7003;60991;51.278;22.550;2022-11-15T20:22:46;62.25;45.50;26.00
72854;PMS7003;60991;51.278;22.550;2022-11-15T20:24:16;55.00;44.00;22.75
72854;PMS7003;60991;51.278;22.550;2022-11-15T20:25:47;54.75;45.25;25.75
72854;PMS7003;60991;51.278;22.550;2022-11-15T20:27:17;58.25;45.75;24.75
72854;PMS7003;60991;51.278;22.550;2022-11-15T20:28:48;65.50;49.00;26.00
72854;PMS7003;60991;51.278;22.550;2022-11-15T20:30:18;63.25;47.50;27.25
72854;PMS7003;60991;51.278;22.550;2022-11-15T20:31:48;66.33;46.33;26.33
72854;PMS7003;60991;51.278;22.550;2022-11-15T20:33:19;65.67;50.33;26.67
72854;PMS7003;60991;51.278;22.550;2022-11-15T20:34:49;58.25;47.00;26.00
72854;PMS7003;60991;51.278;22.550;2022-11-15T20:36:19;63.33;47.00;27.33
72854;PMS7003;60991;51.278;22.550;2022-11-15T20:37:49;60.75;46.00;26.50
72854;PMS7003;60991;51.278;22.550;2022-11-15T20:39:20;68.75;50.00;27.25
72854;PMS7003;60991;51.278;22.550;2022-11-15T20:40:50;63.00;48.67;28.00
72854;PMS7003;60991;51.278;22.550;2022-11-15T20:42:20;55.25;45.00;26.00